createdAt,value
2018-02-08T00:00:48.862Z,1003.56
2018-02-08T00:01:48.838Z,1003.54
2018-02-08T00:03:41.672Z,1003.54
2018-02-08T00:04:41.631Z,1003.53
2018-02-08T00:06:34.456Z,1003.54
2018-02-08T00:07:34.433Z,1003.53
2018-02-08T00:09:27.762Z,1003.54
2018-02-08T00:10:27.722Z,1003.53
2018-02-08T00:12:21.039Z,1003.53
2018-02-08T00:13:21.016Z,1003.57
2018-02-08T00:15:13.854Z,1003.54
2018-02-08T00:16:13.809Z,1003.55
2018-02-08T00:18:06.633Z,1003.55
2018-02-08T00:19:06.606Z,1003.53
2018-02-08T00:20:59.455Z,1003.54
2018-02-08T00:21:59.418Z,1003.54
2018-02-08T00:23:52.235Z,1003.55
2018-02-08T00:24:52.208Z,1003.51
2018-02-08T00:26:45.048Z,1003.51
2018-02-08T00:27:45.006Z,1003.54
2018-02-08T00:29:38.427Z,1003.50
2018-02-08T00:30:38.294Z,1003.53
2018-02-08T00:32:31.235Z,1003.50
2018-02-08T00:33:31.091Z,1003.49
2018-02-08T00:35:23.922Z,1003.53
2018-02-08T00:36:23.895Z,1003.56
2018-02-08T00:38:16.734Z,1003.54
2018-02-08T00:39:16.712Z,1003.52
2018-02-08T00:41:09.519Z,1003.58
2018-02-08T00:42:09.494Z,1003.56
2018-02-08T00:44:02.330Z,1003.57
2018-02-08T00:45:02.295Z,1003.60
2018-02-08T00:46:55.107Z,1003.58
2018-02-08T00:47:55.084Z,1003.60
2018-02-08T00:49:47.920Z,1003.64
2018-02-08T00:50:47.881Z,1003.62
2018-02-08T00:52:40.699Z,1003.68
2018-02-08T00:53:40.674Z,1003.66
2018-02-08T00:55:33.512Z,1003.70
2018-02-08T00:56:33.470Z,1003.72
2018-02-08T00:58:26.287Z,1003.66
2018-02-08T00:59:26.261Z,1003.73
2018-02-08T01:01:19.102Z,1003.72
2018-02-08T01:02:19.067Z,1003.74
2018-02-08T01:04:12.379Z,1003.72
2018-02-08T01:05:12.354Z,1003.71
2018-02-08T01:07:05.195Z,1003.72
2018-02-08T01:08:05.153Z,1003.69
2018-02-08T01:09:58.471Z,1003.74
2018-02-08T01:10:58.444Z,1003.78
2018-02-08T01:12:51.281Z,1003.74
2018-02-08T01:13:51.244Z,1003.76
2018-02-08T01:15:44.565Z,1003.77
2018-02-08T01:16:44.537Z,1003.78
2018-02-08T01:18:37.879Z,1003.84
2018-02-08T01:19:37.823Z,1003.83
2018-02-08T01:21:31.151Z,1003.83
2018-02-08T01:22:31.127Z,1003.87
2018-02-08T01:24:23.966Z,1003.88
2018-02-08T01:25:23.923Z,1003.89
2018-02-08T01:27:16.746Z,1003.91
2018-02-08T01:28:16.723Z,1003.92
2018-02-08T01:30:10.061Z,1003.90
2018-02-08T01:31:10.019Z,1003.94
2018-02-08T01:33:02.840Z,1003.97
2018-02-08T01:34:02.833Z,1003.91
2018-02-08T01:35:55.658Z,1003.90
2018-02-08T01:36:55.618Z,1003.93
2018-02-08T01:38:48.448Z,1003.92
2018-02-08T01:39:48.414Z,1003.87
2018-02-08T01:41:41.255Z,1003.90
2018-02-08T01:42:41.209Z,1003.87
2018-02-08T01:44:34.031Z,1003.85
2018-02-08T01:45:34.009Z,1003.83
2018-02-08T01:47:26.850Z,1003.84
2018-02-08T01:48:26.801Z,1003.82
2018-02-08T01:50:20.124Z,1003.82
2018-02-08T01:51:20.101Z,1003.77
2018-02-08T01:53:12.934Z,1003.82
2018-02-08T01:54:12.893Z,1003.80
2018-02-08T01:56:05.723Z,1003.81
2018-02-08T01:57:05.700Z,1003.82
2018-02-08T01:58:59.026Z,1003.83
2018-02-08T01:59:58.991Z,1003.83
2018-02-08T02:01:52.301Z,1003.84
2018-02-08T02:02:52.275Z,1003.82
2018-02-08T02:04:45.111Z,1003.83
2018-02-08T02:05:45.070Z,1003.83
2018-02-08T02:07:37.897Z,1003.84
2018-02-08T02:08:37.868Z,1003.87
2018-02-08T02:10:30.703Z,1003.83
2018-02-08T02:11:30.662Z,1003.86
2018-02-08T02:13:23.988Z,1003.88
2018-02-08T02:14:23.963Z,1003.89
2018-02-08T02:16:17.302Z,1003.90
2018-02-08T02:17:17.266Z,1003.88
2018-02-08T02:19:10.086Z,1003.87
2018-02-08T02:20:10.061Z,1003.92
2018-02-08T02:22:02.895Z,1003.91
2018-02-08T02:23:02.855Z,1003.89
2018-02-08T02:24:56.173Z,1003.87
2018-02-08T02:25:56.150Z,1003.89
2018-02-08T02:27:48.985Z,1003.85
2018-02-08T02:28:48.946Z,1003.86
2018-02-08T02:30:41.768Z,1003.86
2018-02-08T02:31:41.739Z,1003.83
2018-02-08T02:33:35.065Z,1003.84
2018-02-08T02:34:35.028Z,1003.84
2018-02-08T02:36:27.854Z,1003.83
2018-02-08T02:37:27.826Z,1003.86
2018-02-08T02:39:20.663Z,1003.86
2018-02-08T02:40:20.666Z,1003.87
2018-02-08T02:42:13.443Z,1003.92
2018-02-08T02:43:13.417Z,1003.95
2018-02-08T02:45:06.252Z,1003.97
2018-02-08T02:46:06.213Z,1003.94
2018-02-08T02:47:59.034Z,1003.96
2018-02-08T02:48:59.008Z,1003.95
2018-02-08T02:50:52.335Z,1003.98
2018-02-08T02:51:52.297Z,1003.97
2018-02-08T02:53:45.115Z,1004.00
2018-02-08T02:54:45.089Z,1003.94
2018-02-08T02:56:37.924Z,1003.94
2018-02-08T02:57:37.881Z,1003.93
2018-02-08T02:59:30.713Z,1003.92
2018-02-08T03:00:30.691Z,1003.94
2018-02-08T03:02:23.524Z,1003.88
2018-02-08T03:03:23.485Z,1003.92
2018-02-08T03:05:16.312Z,1003.94
2018-02-08T03:06:16.286Z,1003.93
2018-02-08T03:08:09.121Z,1003.96
2018-02-08T03:09:09.080Z,1003.92
2018-02-08T03:11:01.898Z,1004.00
2018-02-08T03:12:01.875Z,1003.99
2018-02-08T03:13:54.709Z,1003.97
2018-02-08T03:14:54.667Z,1003.97
2018-02-08T03:16:47.497Z,1004.00
2018-02-08T03:17:47.463Z,1004.03
2018-02-08T03:19:40.801Z,1004.02
2018-02-08T03:20:40.761Z,1003.98
2018-02-08T03:22:33.582Z,1004.05
2018-02-08T03:23:33.555Z,1003.99
2018-02-08T03:25:26.399Z,1004.04
2018-02-08T03:26:26.348Z,1004.04
2018-02-08T03:28:19.660Z,1004.03
2018-02-08T03:29:19.638Z,1004.05
2018-02-08T03:31:12.468Z,1004.00
2018-02-08T03:32:12.429Z,1003.97
2018-02-08T03:34:05.245Z,1004.01
2018-02-08T03:35:05.219Z,1003.99
2018-02-08T03:36:58.054Z,1004.02
2018-02-08T03:37:58.013Z,1004.02
2018-02-08T03:39:50.840Z,1004.03
2018-02-08T03:40:50.806Z,1004.05
2018-02-08T03:42:44.242Z,1004.06
2018-02-08T03:43:44.094Z,1004.10
2018-02-08T03:45:36.913Z,1004.10
2018-02-08T03:46:36.881Z,1004.12
2018-02-08T03:48:29.734Z,1004.12
2018-02-08T03:49:29.682Z,1004.18
2018-02-08T03:51:22.501Z,1004.20
2018-02-08T03:52:22.476Z,1004.22
2018-02-08T03:54:15.319Z,1004.22
2018-02-08T03:55:15.268Z,1004.20
2018-02-08T03:57:08.090Z,1004.20
2018-02-08T03:58:08.060Z,1004.24
2018-02-08T04:00:00.894Z,1004.25
2018-02-08T04:01:00.853Z,1004.27
2018-02-08T04:02:53.674Z,1004.26
2018-02-08T04:03:53.648Z,1004.26
2018-02-08T04:05:46.975Z,1004.29
2018-02-08T04:06:46.938Z,1004.32
2018-02-08T04:08:40.260Z,1004.37
2018-02-08T04:09:40.235Z,1004.34
2018-02-08T04:11:33.572Z,1004.37
2018-02-08T04:12:33.521Z,1004.39
2018-02-08T04:14:26.342Z,1004.40
2018-02-08T04:15:26.316Z,1004.41
2018-02-08T04:17:19.152Z,1004.47
2018-02-08T04:18:19.113Z,1004.45
2018-02-08T04:20:12.425Z,1004.41
2018-02-08T04:21:12.398Z,1004.47
2018-02-08T04:23:05.231Z,1004.50
2018-02-08T04:24:05.192Z,1004.48
2018-02-08T04:25:58.010Z,1004.47
2018-02-08T04:26:57.986Z,1004.43
2018-02-08T04:28:50.824Z,1004.47
2018-02-08T04:29:50.775Z,1004.49
2018-02-08T04:31:44.087Z,1004.47
2018-02-08T04:32:44.062Z,1004.42
2018-02-08T04:34:36.908Z,1004.52
2018-02-08T04:35:36.858Z,1004.49
2018-02-08T04:37:30.169Z,1004.52
2018-02-08T04:38:30.144Z,1004.48
2018-02-08T04:40:22.987Z,1004.51
2018-02-08T04:41:22.947Z,1004.56
2018-02-08T04:43:15.766Z,1004.59
2018-02-08T04:44:15.739Z,1004.61
2018-02-08T04:46:08.585Z,1004.59
2018-02-08T04:47:08.530Z,1004.61
2018-02-08T04:49:01.351Z,1004.62
2018-02-08T04:50:01.321Z,1004.62
2018-02-08T04:51:54.161Z,1004.67
2018-02-08T04:52:54.117Z,1004.66
2018-02-08T04:54:46.935Z,1004.69
2018-02-08T04:55:46.902Z,1004.72
2018-02-08T04:57:39.753Z,1004.67
2018-02-08T04:58:39.707Z,1004.71
2018-02-08T05:00:32.536Z,1004.74
2018-02-08T05:01:32.508Z,1004.71
2018-02-08T05:03:25.345Z,1004.73
2018-02-08T05:04:25.342Z,1004.75
2018-02-08T05:06:18.616Z,1004.74
2018-02-08T05:07:18.593Z,1004.80
2018-02-08T05:09:11.423Z,1004.78
2018-02-08T05:10:11.381Z,1004.76
2018-02-08T05:12:04.203Z,1004.81
2018-02-08T05:13:04.175Z,1004.74
2018-02-08T05:14:57.004Z,1004.79
2018-02-08T05:15:56.964Z,1004.81
2018-02-08T05:17:50.278Z,1004.76
2018-02-08T05:18:50.251Z,1004.80
2018-02-08T05:20:43.097Z,1004.80
2018-02-08T05:21:43.046Z,1004.82
2018-02-08T05:23:36.364Z,1004.84
2018-02-08T05:24:36.335Z,1004.82
2018-02-08T05:26:29.179Z,1004.81
2018-02-08T05:27:29.128Z,1004.82
2018-02-08T05:29:21.942Z,1004.83
2018-02-08T05:30:21.920Z,1004.82
2018-02-08T05:32:14.753Z,1004.84
2018-02-08T05:33:14.714Z,1004.81
2018-02-08T05:35:07.530Z,1004.86
2018-02-08T05:36:07.505Z,1004.87
2018-02-08T05:38:00.338Z,1004.87
2018-02-08T05:39:00.303Z,1004.91
2018-02-08T05:40:53.154Z,1004.86
2018-02-08T05:41:53.094Z,1004.93
2018-02-08T05:43:45.928Z,1004.93
2018-02-08T05:44:45.888Z,1004.91
2018-02-08T05:46:38.708Z,1004.94
2018-02-08T05:47:38.681Z,1004.92
2018-02-08T05:49:31.520Z,1004.87
2018-02-08T05:50:31.475Z,1004.88
2018-02-08T05:52:24.294Z,1004.94
2018-02-08T05:53:24.266Z,1004.93
2018-02-08T05:55:17.112Z,1004.94
2018-02-08T05:56:17.063Z,1004.98
2018-02-08T05:58:09.885Z,1005.00
2018-02-08T05:59:09.857Z,1005.02
2018-02-08T06:01:02.690Z,1005.04
2018-02-08T06:02:02.647Z,1005.03
2018-02-08T06:03:55.469Z,1005.05
2018-02-08T06:04:55.442Z,1005.12
2018-02-08T06:06:48.280Z,1005.16
2018-02-08T06:07:48.241Z,1005.14
2018-02-08T06:09:41.058Z,1005.15
2018-02-08T06:10:41.030Z,1005.13
2018-02-08T06:12:33.867Z,1005.15
2018-02-08T06:13:33.818Z,1005.11
2018-02-08T06:15:26.637Z,1005.16
2018-02-08T06:16:26.611Z,1005.15
2018-02-08T06:18:19.453Z,1005.13
2018-02-08T06:19:19.411Z,1005.20
2018-02-08T06:21:12.722Z,1005.17
2018-02-08T06:22:12.696Z,1005.17
2018-02-08T06:24:05.530Z,1005.20
2018-02-08T06:25:05.487Z,1005.17
2018-02-08T06:26:58.309Z,1005.24
2018-02-08T06:27:58.281Z,1005.24
2018-02-08T06:29:51.114Z,1005.23
2018-02-08T06:30:51.072Z,1005.25
2018-02-08T06:32:43.891Z,1005.25
2018-02-08T06:33:43.865Z,1005.21
2018-02-08T06:35:36.695Z,1005.28
2018-02-08T06:36:36.657Z,1005.23
2018-02-08T06:38:29.476Z,1005.25
2018-02-08T06:39:29.446Z,1005.26
2018-02-08T06:41:22.279Z,1005.26
2018-02-08T06:42:22.237Z,1005.29
2018-02-08T06:44:15.052Z,1005.29
2018-02-08T06:45:15.030Z,1005.29
2018-02-08T06:47:08.358Z,1005.33
2018-02-08T06:48:08.315Z,1005.31
2018-02-08T06:50:01.132Z,1005.35
2018-02-08T06:51:01.105Z,1005.35
2018-02-08T06:52:54.444Z,1005.35
2018-02-08T06:53:54.391Z,1005.34
2018-02-08T06:55:47.211Z,1005.38
2018-02-08T06:56:47.185Z,1005.43
2018-02-08T06:58:40.022Z,1005.41
2018-02-08T06:59:39.981Z,1005.43
2018-02-08T07:01:32.795Z,1005.42
2018-02-08T07:02:32.773Z,1005.49
2018-02-08T07:04:25.605Z,1005.51
2018-02-08T07:05:25.561Z,1005.43
2018-02-08T07:07:18.380Z,1005.47
2018-02-08T07:08:18.352Z,1005.48
2018-02-08T07:10:11.192Z,1005.52
2018-02-08T07:11:11.151Z,1005.55
2018-02-08T07:13:03.972Z,1005.54
2018-02-08T07:14:03.940Z,1005.54
2018-02-08T07:15:57.268Z,1005.55
2018-02-08T07:16:57.228Z,1005.56
2018-02-08T07:18:50.054Z,1005.59
2018-02-08T07:19:50.018Z,1005.59
2018-02-08T07:21:42.854Z,1005.61
2018-02-08T07:22:42.814Z,1005.53
2018-02-08T07:24:35.627Z,1005.64
2018-02-08T07:25:35.599Z,1005.63
2018-02-08T07:27:28.435Z,1005.64
2018-02-08T07:28:28.400Z,1005.70
2018-02-08T07:30:21.214Z,1005.68
2018-02-08T07:31:21.189Z,1005.68
2018-02-08T07:33:14.024Z,1005.66
2018-02-08T07:34:13.978Z,1005.68
2018-02-08T07:36:07.292Z,1005.69
2018-02-08T07:37:07.267Z,1005.74
2018-02-08T07:39:00.103Z,1005.74
2018-02-08T07:40:00.063Z,1005.76
2018-02-08T07:41:52.883Z,1005.75
2018-02-08T07:42:52.856Z,1005.81
2018-02-08T07:44:45.689Z,1005.84
2018-02-08T07:45:45.647Z,1005.88
2018-02-08T07:47:38.472Z,1005.86
2018-02-08T07:48:38.447Z,1005.89
2018-02-08T07:50:31.278Z,1005.87
2018-02-08T07:51:31.237Z,1005.91
2018-02-08T07:53:24.063Z,1005.95
2018-02-08T07:54:24.039Z,1005.95
2018-02-08T07:56:17.364Z,1005.93
2018-02-08T07:57:17.323Z,1005.95
2018-02-08T07:59:10.143Z,1005.93
2018-02-08T08:00:10.119Z,1005.91
2018-02-08T08:02:03.442Z,1005.91
2018-02-08T08:03:03.403Z,1005.90
2018-02-08T08:04:56.221Z,1005.92
2018-02-08T08:05:56.199Z,1005.86
2018-02-08T08:07:49.031Z,1005.88
2018-02-08T08:08:48.990Z,1005.83
2018-02-08T08:10:41.814Z,1005.91
2018-02-08T08:11:41.792Z,1005.89
2018-02-08T08:13:34.624Z,1005.90
2018-02-08T08:14:34.583Z,1005.88
2018-02-08T08:16:27.418Z,1005.88
2018-02-08T08:17:27.389Z,1005.82
2018-02-08T08:19:20.223Z,1005.83
2018-02-08T08:20:20.179Z,1005.81
2018-02-08T08:22:13.005Z,1005.77
2018-02-08T08:23:12.978Z,1005.79
2018-02-08T08:25:05.812Z,1005.83
2018-02-08T08:26:05.768Z,1005.84
2018-02-08T08:27:58.596Z,1005.91
2018-02-08T08:28:58.561Z,1005.89
2018-02-08T08:30:51.405Z,1005.88
2018-02-08T08:31:51.355Z,1005.88
2018-02-08T08:33:44.173Z,1005.90
2018-02-08T08:34:44.150Z,1005.92
2018-02-08T08:36:36.981Z,1005.92
2018-02-08T08:37:36.942Z,1005.93
2018-02-08T08:39:29.762Z,1005.91
2018-02-08T08:40:29.734Z,1005.96
2018-02-08T08:42:22.625Z,1005.92
2018-02-08T08:43:22.530Z,1005.94
2018-02-08T08:45:15.358Z,1005.97
2018-02-08T08:46:15.329Z,1005.97
2018-02-08T08:48:08.656Z,1005.95
2018-02-08T08:49:08.616Z,1006.01
2018-02-08T08:51:01.443Z,1005.99
2018-02-08T08:52:01.414Z,1006.01
2018-02-08T08:53:54.251Z,1005.99
2018-02-08T08:54:54.204Z,1005.99
2018-02-08T08:56:47.025Z,1006.00
2018-02-08T08:57:46.996Z,1005.99
2018-02-08T08:59:39.831Z,1006.03
2018-02-08T09:00:39.789Z,1006.05
2018-02-08T09:02:33.100Z,1006.04
2018-02-08T09:03:33.079Z,1006.08
2018-02-08T09:05:25.914Z,1006.09
2018-02-08T09:06:25.870Z,1006.13
2018-02-08T09:08:18.697Z,1006.14
2018-02-08T09:09:18.674Z,1006.12
2018-02-08T09:11:11.502Z,1006.16
2018-02-08T09:12:11.458Z,1006.17
2018-02-08T09:14:04.288Z,1006.20
2018-02-08T09:15:04.285Z,1006.20
2018-02-08T09:16:57.109Z,1006.19
2018-02-08T09:17:57.057Z,1006.23
2018-02-08T09:19:49.889Z,1006.25
2018-02-08T09:20:49.861Z,1006.25
2018-02-08T09:22:42.697Z,1006.28
2018-02-08T09:23:42.658Z,1006.31
2018-02-08T09:25:35.482Z,1006.27
2018-02-08T09:26:35.458Z,1006.29
2018-02-08T09:28:28.293Z,1006.29
2018-02-08T09:29:28.252Z,1006.30
2018-02-08T09:31:21.082Z,1006.36
2018-02-08T09:32:21.090Z,1006.36
2018-02-08T09:34:13.885Z,1006.32
2018-02-08T09:35:13.845Z,1006.33
2018-02-08T09:37:07.171Z,1006.36
2018-02-08T09:38:07.154Z,1006.41
2018-02-08T09:39:59.981Z,1006.43
2018-02-08T09:40:59.939Z,1006.39
2018-02-08T09:42:52.765Z,1006.41
2018-02-08T09:43:52.734Z,1006.44
2018-02-08T09:45:46.067Z,1006.48
2018-02-08T09:46:46.023Z,1006.46
2018-02-08T09:48:38.858Z,1006.54
2018-02-08T09:49:38.826Z,1006.53
2018-02-08T09:51:32.158Z,1006.56
2018-02-08T09:52:32.119Z,1006.53
2018-02-08T09:54:25.450Z,1006.56
2018-02-08T09:55:25.427Z,1006.55
2018-02-08T09:57:18.273Z,1006.57
2018-02-08T09:58:18.225Z,1006.60
2018-02-08T10:00:11.058Z,1006.58
2018-02-08T10:01:11.033Z,1006.62
2018-02-08T10:03:04.365Z,1006.63
2018-02-08T10:04:04.325Z,1006.60
2018-02-08T10:05:57.147Z,1006.60
2018-02-08T10:06:57.122Z,1006.62
2018-02-08T10:08:49.962Z,1006.64
2018-02-08T10:09:49.921Z,1006.65
2018-02-08T10:11:43.240Z,1006.64
2018-02-08T10:12:43.212Z,1006.64
2018-02-08T10:14:36.543Z,1006.63
2018-02-08T10:15:36.504Z,1006.62
2018-02-08T10:17:29.843Z,1006.66
2018-02-08T10:18:29.802Z,1006.66
2018-02-08T10:20:23.134Z,1006.71
2018-02-08T10:21:23.094Z,1006.71
2018-02-08T10:23:16.413Z,1006.69
2018-02-08T10:24:16.391Z,1006.68
2018-02-08T10:26:09.239Z,1006.71
2018-02-08T10:27:09.190Z,1006.68
2018-02-08T10:29:02.506Z,1006.69
2018-02-08T10:30:02.485Z,1006.70
2018-02-08T10:31:55.322Z,1006.69
2018-02-08T10:32:55.279Z,1006.68
2018-02-08T10:34:48.106Z,1006.67
2018-02-08T10:35:48.080Z,1006.70
2018-02-08T10:37:40.922Z,1006.66
2018-02-08T10:38:40.884Z,1006.68
2018-02-08T10:40:34.202Z,1006.67
2018-02-08T10:41:34.175Z,1006.66
2018-02-08T10:43:27.024Z,1006.61
2018-02-08T10:44:27.034Z,1006.66
2018-02-08T10:46:19.807Z,1006.68
2018-02-08T10:47:19.783Z,1006.69
2018-02-08T10:49:12.620Z,1006.71
2018-02-08T10:50:12.584Z,1006.69
2018-02-08T10:52:05.409Z,1006.66
2018-02-08T10:53:05.387Z,1006.59
2018-02-08T10:54:58.718Z,1006.59
2018-02-08T10:55:58.680Z,1006.58
2018-02-08T10:57:51.512Z,1006.57
2018-02-08T10:58:51.486Z,1006.55
2018-02-08T11:00:44.333Z,1006.53
2018-02-08T11:01:44.298Z,1006.51
2018-02-08T11:03:37.620Z,1006.49
2018-02-08T11:04:37.595Z,1006.42
2018-02-08T11:06:30.438Z,1006.45
2018-02-08T11:07:30.396Z,1006.43
2018-02-08T11:09:23.717Z,1006.42
2018-02-08T11:10:23.687Z,1006.52
2018-02-08T11:12:16.532Z,1006.44
2018-02-08T11:13:16.488Z,1006.49
2018-02-08T11:15:09.317Z,1006.52
2018-02-08T11:16:09.293Z,1006.50
2018-02-08T11:18:02.133Z,1006.52
2018-02-08T11:19:02.094Z,1006.48
2018-02-08T11:20:54.973Z,1006.46
2018-02-08T11:21:54.947Z,1006.50
2018-02-08T11:23:47.793Z,1006.52
2018-02-08T11:24:47.753Z,1006.45
2018-02-08T11:26:41.073Z,1006.47
2018-02-08T11:27:41.050Z,1006.48
2018-02-08T11:29:33.897Z,1006.46
2018-02-08T11:30:33.856Z,1006.46
2018-02-08T11:32:26.680Z,1006.43
2018-02-08T11:33:26.659Z,1006.46
2018-02-08T11:35:19.498Z,1006.43
2018-02-08T11:36:19.457Z,1006.43
2018-02-08T11:38:12.285Z,1006.37
2018-02-08T11:39:12.260Z,1006.38
2018-02-08T11:41:05.101Z,1006.35
2018-02-08T11:42:05.064Z,1006.34
2018-02-08T11:43:57.896Z,1006.38
2018-02-08T11:44:57.862Z,1006.33
2018-02-08T11:46:50.704Z,1006.33
2018-02-08T11:47:50.661Z,1006.38
2018-02-08T11:49:43.491Z,1006.33
2018-02-08T11:50:43.467Z,1006.32
2018-02-08T11:52:36.311Z,1006.27
2018-02-08T11:53:36.267Z,1006.26
2018-02-08T11:55:29.602Z,1006.29
2018-02-08T11:56:29.577Z,1006.25
2018-02-08T11:58:22.910Z,1006.23
2018-02-08T11:59:22.873Z,1006.22
2018-02-08T12:01:15.703Z,1006.23
2018-02-08T12:02:15.679Z,1006.23
2018-02-08T12:04:09.024Z,1006.28
2018-02-08T12:05:08.988Z,1006.22
2018-02-08T12:07:02.306Z,1006.24
2018-02-08T12:08:02.286Z,1006.27
2018-02-08T12:09:55.618Z,1006.20
2018-02-08T12:10:55.579Z,1006.18
2018-02-08T12:12:48.898Z,1006.20
2018-02-08T12:13:48.874Z,1006.24
2018-02-08T12:17:34.731Z,1006.23
2018-02-08T12:19:06.574Z,1006.22
2018-02-08T12:20:06.548Z,1006.15
2018-02-08T12:21:59.921Z,1006.15
2018-02-08T12:22:59.853Z,1006.14
2018-02-08T12:24:53.196Z,1006.20
2018-02-08T12:25:53.155Z,1006.18
2018-02-08T12:27:45.989Z,1006.16
2018-02-08T12:28:45.964Z,1006.16
2018-02-08T12:30:38.804Z,1006.16
2018-02-08T12:31:38.763Z,1006.13
2018-02-08T12:33:31.598Z,1006.09
2018-02-08T12:34:31.573Z,1006.13
2018-02-08T12:36:24.412Z,1006.09
2018-02-08T12:37:24.376Z,1006.06
2018-02-08T12:39:17.712Z,1006.09
2018-02-08T12:40:17.687Z,1006.05
2018-02-08T12:42:11.029Z,1006.07
2018-02-08T12:43:10.982Z,1006.04
2018-02-08T12:45:03.813Z,1006.03
2018-02-08T12:46:03.786Z,1006.02
2018-02-08T12:47:56.630Z,1005.99
2018-02-08T12:48:56.594Z,1005.99
2018-02-08T12:50:49.922Z,1006.02
2018-02-08T12:51:49.899Z,1005.99
2018-02-08T12:53:43.236Z,1006.01
2018-02-08T12:54:43.197Z,1005.99
2018-02-08T12:56:36.534Z,1005.95
2018-02-08T12:57:36.507Z,1005.97
2018-02-08T12:59:29.850Z,1005.96
2018-02-08T13:00:29.813Z,1005.92
2018-02-08T13:02:23.132Z,1005.94
2018-02-08T13:03:23.118Z,1005.91
2018-02-08T13:05:15.952Z,1005.86
2018-02-08T13:06:15.917Z,1005.91
2018-02-08T13:08:08.740Z,1005.89
2018-02-08T13:09:08.716Z,1005.89
2018-02-08T13:11:01.559Z,1005.87
2018-02-08T13:12:01.533Z,1005.84
2018-02-08T13:13:54.354Z,1005.85
2018-02-08T13:14:54.329Z,1005.86
2018-02-08T13:16:47.169Z,1005.84
2018-02-08T13:17:47.137Z,1005.84
2018-02-08T13:19:39.963Z,1005.82
2018-02-08T13:20:39.941Z,1005.82
2018-02-08T13:22:33.298Z,1005.78
2018-02-08T13:23:33.260Z,1005.74
2018-02-08T13:25:26.597Z,1005.79
2018-02-08T13:26:26.565Z,1005.78
2018-02-08T13:28:19.417Z,1005.76
2018-02-08T13:29:19.370Z,1005.74
2018-02-08T13:31:12.705Z,1005.72
2018-02-08T13:32:12.677Z,1005.73
2018-02-08T13:34:06.009Z,1005.73
2018-02-08T13:35:05.977Z,1005.78
2018-02-08T13:36:58.818Z,1005.75
2018-02-08T13:37:58.787Z,1005.78
2018-02-08T13:39:51.640Z,1005.71
2018-02-08T13:40:51.601Z,1005.77
2018-02-08T13:42:44.435Z,1005.73
2018-02-08T13:43:44.400Z,1005.78
2018-02-08T13:45:37.248Z,1005.72
2018-02-08T13:46:37.214Z,1005.70
2018-02-08T13:48:30.051Z,1005.73
2018-02-08T13:49:30.028Z,1005.77
2018-02-08T13:51:23.366Z,1005.75
2018-02-08T13:52:23.327Z,1005.72
2018-02-08T13:54:16.650Z,1005.80
2018-02-08T13:55:16.625Z,1005.75
2018-02-08T13:57:09.978Z,1005.72
2018-02-08T13:58:09.937Z,1005.75
2018-02-08T14:00:02.766Z,1005.72
2018-02-08T14:01:02.745Z,1005.71
2018-02-08T14:02:55.591Z,1005.67
2018-02-08T14:03:55.559Z,1005.65
2018-02-08T14:05:48.884Z,1005.71
2018-02-08T14:06:48.863Z,1005.65
2018-02-08T14:08:41.708Z,1005.69
2018-02-08T14:09:41.672Z,1005.70
2018-02-08T14:11:34.501Z,1005.63
2018-02-08T14:12:34.480Z,1005.68
2018-02-08T14:14:27.376Z,1005.70
2018-02-08T14:15:27.291Z,1005.67
2018-02-08T14:17:20.625Z,1005.72
2018-02-08T14:18:20.606Z,1005.69
2018-02-08T14:20:13.945Z,1005.72
2018-02-08T14:21:13.905Z,1005.73
2018-02-08T14:23:07.230Z,1005.72
2018-02-08T14:24:07.208Z,1005.75
2018-02-08T14:26:00.546Z,1005.73
2018-02-08T14:27:00.510Z,1005.72
2018-02-08T14:28:53.341Z,1005.72
2018-02-08T14:29:53.317Z,1005.74
2018-02-08T14:31:46.163Z,1005.73
2018-02-08T14:32:46.126Z,1005.74
2018-02-08T14:34:39.450Z,1005.73
2018-02-08T14:35:39.431Z,1005.72
2018-02-08T14:37:32.777Z,1005.77
2018-02-08T14:38:32.741Z,1005.74
2018-02-08T14:40:26.084Z,1005.80
2018-02-08T14:41:26.053Z,1005.75
2018-02-08T14:43:19.400Z,1005.73
2018-02-08T14:44:19.364Z,1005.73
2018-02-08T14:46:12.199Z,1005.73
2018-02-08T14:47:12.176Z,1005.74
2018-02-08T14:49:05.022Z,1005.74
2018-02-08T14:50:04.981Z,1005.73
2018-02-08T14:51:57.817Z,1005.75
2018-02-08T14:52:57.793Z,1005.76
2018-02-08T14:54:51.137Z,1005.76
2018-02-08T14:55:51.094Z,1005.76
2018-02-08T14:57:44.424Z,1005.78
2018-02-08T14:58:44.404Z,1005.73
2018-02-08T15:00:37.255Z,1005.79
2018-02-08T15:01:37.216Z,1005.78
2018-02-08T15:03:30.045Z,1005.79
2018-02-08T15:04:30.017Z,1005.76
2018-02-08T15:06:23.355Z,1005.76
2018-02-08T15:07:23.322Z,1005.77
2018-02-08T15:09:16.157Z,1005.75
2018-02-08T15:10:16.147Z,1005.76
2018-02-08T15:12:09.477Z,1005.75
2018-02-08T15:13:09.436Z,1005.77
2018-02-08T15:15:02.270Z,1005.76
2018-02-08T15:16:02.245Z,1005.77
2018-02-08T15:17:55.584Z,1005.74
2018-02-08T15:18:55.549Z,1005.76
2018-02-08T15:20:48.379Z,1005.71
2018-02-08T15:21:48.356Z,1005.76
2018-02-08T15:23:41.197Z,1005.74
2018-02-08T15:24:41.158Z,1005.70
2018-02-08T15:26:33.988Z,1005.68
2018-02-08T15:27:33.968Z,1005.66
2018-02-08T15:29:26.825Z,1005.73
2018-02-08T15:30:26.777Z,1005.73
2018-02-08T15:32:20.101Z,1005.76
2018-02-08T15:33:20.082Z,1005.73
2018-02-08T15:35:12.948Z,1005.74
2018-02-08T15:36:12.888Z,1005.75
2018-02-08T15:38:06.209Z,1005.78
2018-02-08T15:39:06.192Z,1005.78
2018-02-08T15:40:59.039Z,1005.78
2018-02-08T15:41:59.005Z,1005.75
2018-02-08T15:43:51.829Z,1005.74
2018-02-08T15:44:51.811Z,1005.76
2018-02-08T15:46:44.648Z,1005.80
2018-02-08T15:47:44.609Z,1005.83
2018-02-08T15:49:37.435Z,1005.82
2018-02-08T15:50:37.411Z,1005.83
2018-02-08T15:52:30.252Z,1005.86
2018-02-08T15:53:30.214Z,1005.84
2018-02-08T15:55:23.538Z,1005.88
2018-02-08T15:56:23.517Z,1005.87
2018-02-08T15:58:16.850Z,1005.88
2018-02-08T15:59:16.810Z,1005.89
2018-02-08T16:01:09.639Z,1005.88
2018-02-08T16:02:09.622Z,1005.86
2018-02-08T16:04:02.460Z,1005.89
2018-02-08T16:05:02.421Z,1005.94
2018-02-08T16:06:55.252Z,1005.94
2018-02-08T16:07:55.231Z,1005.94
2018-02-08T16:09:48.075Z,1005.94
2018-02-08T16:10:48.034Z,1005.95
2018-02-08T16:12:40.865Z,1005.90
2018-02-08T16:13:40.840Z,1005.97
2018-02-08T16:15:33.698Z,1005.97
2018-02-08T16:16:33.644Z,1005.97
2018-02-08T16:18:26.472Z,1006.01
2018-02-08T16:19:26.449Z,1005.99
2018-02-08T16:21:19.294Z,1005.93
2018-02-08T16:22:19.251Z,1005.97
2018-02-08T16:24:12.078Z,1005.97
2018-02-08T16:25:12.050Z,1005.99
2018-02-08T16:27:04.895Z,1006.01
2018-02-08T16:28:04.855Z,1005.99
2018-02-08T16:29:58.180Z,1006.01
2018-02-08T16:30:58.156Z,1006.00
2018-02-08T16:32:50.999Z,1006.01
2018-02-08T16:33:50.961Z,1006.01
2018-02-08T16:35:43.788Z,1006.07
2018-02-08T16:36:43.765Z,1006.03
2018-02-08T16:38:36.606Z,1006.08
2018-02-08T16:39:36.567Z,1006.09
2018-02-08T16:41:29.390Z,1006.12
2018-02-08T16:42:29.367Z,1006.12
2018-02-08T16:44:22.223Z,1006.12
2018-02-08T16:45:22.167Z,1006.11
2018-02-08T16:47:14.988Z,1006.11
2018-02-08T16:48:14.965Z,1006.12
2018-02-08T16:50:07.802Z,1006.15
2018-02-08T16:51:07.763Z,1006.18
2018-02-08T16:53:01.089Z,1006.17
2018-02-08T16:54:01.076Z,1006.20
2018-02-08T16:55:54.408Z,1006.23
2018-02-08T16:56:54.369Z,1006.26
2018-02-08T16:58:47.681Z,1006.21
2018-02-08T16:59:47.659Z,1006.27
2018-02-08T17:01:41.010Z,1006.30
2018-02-08T17:02:41.025Z,1006.30
2018-02-08T17:04:35.284Z,1006.27
2018-02-08T17:05:35.263Z,1006.25
2018-02-08T17:07:28.106Z,1006.23
2018-02-08T17:08:28.062Z,1006.27
2018-02-08T17:10:21.397Z,1006.26
2018-02-08T17:11:21.370Z,1006.28
2018-02-08T17:13:14.713Z,1006.26
2018-02-08T17:14:14.665Z,1006.31
2018-02-08T17:16:07.994Z,1006.25
2018-02-08T17:17:07.974Z,1006.29
2018-02-08T17:19:01.318Z,1006.29
2018-02-08T17:20:01.287Z,1006.31
2018-02-08T17:21:54.107Z,1006.30
2018-02-08T17:22:54.084Z,1006.33
2018-02-08T17:24:46.923Z,1006.32
2018-02-08T17:25:46.889Z,1006.31
2018-02-08T17:27:39.708Z,1006.27